Aviation Digital Data Service (ADDS)

Output produced by METARs form (0036 UTC 26 May 2016)
found at http://aviationweather.gov/adds/metars/
 
KLFT 252330Z 2600/2624 18010KT P6SM SCT070 SCT250 
     FM260200 17006KT P6SM FEW070 FEW250 
     FM260600 16004KT P6SM SCT025 SCT250 
     TEMPO 2610/2614 SCT018 BKN028 
     FM261500 18010KT P6SM FEW018 BKN035 BKN110 
     TEMPO 2618/2622 P6SM -TSRA BKN025CB